Аэропорт
Минеральные Воды (URMM)

 URMM / MRV
ЗЦ Ростов-на-Дону
Ростов-на-Дону (URRV)
Ростов-на-Дону (URRV)
 44.22510, 43.08190  / 1054 ft

 URMM 161030Z 30013MPS 9999 BKN016 03/00 Q1002 R30/090070 TEMPO 28012G23MPS RMK MT OBSC QFE723/0965
 URMM 151958Z 1521/1621 09003G08MPS 0800 FZFG OVC002 TX02/1611Z TNM02/1603Z TEMPO 1521/1608 0300 FZDZ FZFG OVC001 FM160800 28005G10MPS 5000 -SHRA BR BKN011 BKN020CB TEMPO 1608/1618 28008G18MPS
показать схемы

Международный аэропорт Минеральные Воды (код IATA: MRV, код ICAO: URMM, внутренний код: МРВ) — крупнейший аэропорт Ставропольского края и Северо-Кавказского федерального округа, один из крупнейших на Юге России. Является аэропортом федерального значения, также имеет статус международного. Аэропорт находится западнее города Минеральные Воды на расстоянии 4 км.

Информация о ВПП и навигационном оборудовании:

ВПП Размеры, м Hпор, м МПУ взлета/посадки Освещение ВПП ДПРМ БПРМ ILS
12 3900×60 316 115° ОВИ-2 468 (MD) -- 111.700 (IMD)
30 3900×60 318,2 295° ОВИ-1 -- -- 109.300 (IMW)

VOR/DME - 117.100 (MNW)

 

Средства связи ОВД:

URMM_APP - Минеральные Воды-Подход - 119.300

URMM_R_APP - Минеральные Воды-Круг - 120.700

URMM_TWR - Минеральные Воды-Старт - 128.000

URMM_GND - Минеральные Воды-Руление - 121.900

URMM_ATIS - Минеральные Воды-АТИС - 127.400

 



2018 © VATRUS division